Time;durP1;ratioP1;P1;durP2;ratioP2;P2;SDS_P1;SDS_P2;PMS_P1;PMS_P2;Temp;Humidity;BMP_temperature;BMP_pressure;BME280_temperature;BME280_humidity;BME280_pressure;Samples;Min_cycle;Max_cycle;Signal;HPM_P1;HPM_P2
2023/05/02 00:02:20;;;;;;;7.70;4.20;;;;;;;8.21;100.00;100700.50;105470;1259;62770;-56
2023/05/02 00:04:47;;;;;;;7.20;4.80;;;;;;;8.23;100.00;100704.44;105832;1258;75918;-55
2023/05/02 00:07:14;;;;;;;7.30;4.70;;;;;;;8.25;100.00;100707.50;105474;1259;69539;-55
2023/05/02 00:09:41;;;;;;;9.80;4.30;;;;;;;8.26;100.00;100709.39;105788;1260;73912;-55
2023/05/02 00:12:09;;;;;;;7.00;4.10;;;;;;;8.28;100.00;100710.66;105949;1254;64535;-59
2023/05/02 00:14:36;;;;;;;6.40;4.40;;;;;;;8.33;100.00;100712.86;105888;1257;62128;-55
2023/05/02 00:17:03;;;;;;;6.10;4.00;;;;;;;8.36;100.00;100713.34;105810;1254;76869;-55
2023/05/02 00:19:30;;;;;;;8.20;4.40;;;;;;;8.37;100.00;100716.17;105830;1257;69509;-55
2023/05/02 00:21:57;;;;;;;6.80;4.20;;;;;;;8.37;100.00;100719.70;105803;1260;75437;-56
2023/05/02 00:24:25;;;;;;;7.00;4.50;;;;;;;8.35;100.00;100717.64;105579;1254;63055;-56
2023/05/02 00:26:52;;;;;;;6.50;4.20;;;;;;;8.34;100.00;100721.30;105703;1259;61840;-57
2023/05/02 00:29:20;;;;;;;7.30;3.80;;;;;;;8.31;100.00;100724.39;105774;1254;75954;-56
2023/05/02 00:31:47;;;;;;;8.50;4.20;;;;;;;8.27;100.00;100725.02;105722;1254;69204;-58
2023/05/02 00:34:15;;;;;;;6.00;3.40;;;;;;;8.22;100.00;100726.22;105714;1259;74156;-58
2023/05/02 00:36:42;;;;;;;6.50;4.30;;;;;;;8.17;100.00;100728.08;105719;1260;61589;-57
2023/05/02 00:39:10;;;;;;;6.60;4.30;;;;;;;8.14;100.00;100730.31;105712;1254;62772;-58
2023/05/02 00:41:37;;;;;;;6.50;4.30;;;;;;;8.13;100.00;100730.76;105786;1254;75169;-56
2023/05/02 00:44:04;;;;;;;8.90;4.50;;;;;;;8.11;100.00;100733.25;105773;1260;69496;-56
2023/05/02 00:46:31;;;;;;;6.10;3.70;;;;;;;8.06;100.00;100733.84;105965;1257;74088;-57
2023/05/02 00:49:00;;;;;;;6.70;4.30;;;;;;;8.02;100.00;100738.04;105719;1260;64811;-57
2023/05/02 00:51:27;;;;;;;6.50;3.90;;;;;;;8.03;100.00;100738.47;105529;1260;61668;-58
2023/05/02 00:53:56;;;;;;;7.30;4.30;;;;;;;8.01;100.00;100741.60;105809;1257;76355;-57
2023/05/02 00:56:23;;;;;;;7.00;4.70;;;;;;;8.01;100.00;100744.89;105781;1254;68198;-58
2023/05/02 00:58:51;;;;;;;6.50;4.30;;;;;;;8.00;100.00;100748.61;105751;1260;74564;-58
2023/05/02 01:01:24;;;;;;;8.90;4.40;;;;;;;7.99;100.00;100749.64;105775;1259;64256;-57
2023/05/02 01:04:00;;;;;;;7.30;4.00;;;;;;;7.98;100.00;100752.84;105704;1254;61521;-57
2023/05/02 01:06:33;;;;;;;6.70;3.70;;;;;;;7.95;100.00;100755.27;105901;1255;76418;-61
2023/05/02 01:09:16;;;;;;;7.00;4.30;;;;;;;7.93;100.00;100755.64;105519;1254;69745;-56
2023/05/02 01:11:48;;;;;;;10.00;4.90;;;;;;;7.90;100.00;100759.19;105456;1259;74779;-57
2023/05/02 01:14:15;;;;;;;8.30;4.50;;;;;;;7.87;100.00;100762.45;105669;1254;63204;-57
2023/05/02 01:16:43;;;;;;;7.70;4.30;;;;;;;7.83;100.00;100764.05;105375;1254;60811;-58
2023/05/02 01:19:41;;;;;;;7.00;4.00;;;;;;;7.79;100.00;100766.45;105662;1257;75303;-57
2023/05/02 01:22:08;;;;;;;8.30;4.30;;;;;;;7.75;100.00;100770.16;105291;1260;68264;-61
2023/05/02 01:24:46;;;;;;;5.50;3.70;;;;;;;7.71;100.00;100773.86;105371;1254;75677;-57
2023/05/02 01:27:40;;;;;;;7.60;4.50;;;;;;;7.66;100.00;100775.60;105440;1254;63012;-57
2023/05/02 01:30:08;;;;;;;7.70;3.70;;;;;;;7.59;100.00;100778.19;105444;1255;61783;-57
2023/05/02 01:32:36;;;;;;;5.90;3.80;;;;;;;7.56;100.00;100781.08;105544;1254;76452;-57
2023/05/02 01:35:04;;;;;;;9.40;3.70;;;;;;;7.53;100.00;100783.45;105584;1259;68474;-58
2023/05/02 01:37:31;;;;;;;6.90;3.80;;;;;;;7.50;100.00;100787.70;105708;1254;75187;-57
2023/05/02 01:39:59;;;;;;;7.10;3.90;;;;;;;7.46;100.00;100789.48;105692;1255;64543;-58
2023/05/02 01:42:26;;;;;;;6.50;4.20;;;;;;;7.43;100.00;100791.34;105206;1261;61927;-56
2023/05/02 01:44:54;;;;;;;6.90;4.20;;;;;;;7.40;100.00;100793.02;105575;1259;76068;-58
2023/05/02 01:47:21;;;;;;;6.60;4.00;;;;;;;7.41;100.00;100796.87;105627;1254;69651;-56
2023/05/02 01:49:49;;;;;;;7.30;4.20;;;;;;;7.42;100.00;100801.42;105722;1254;73739;-57
2023/05/02 01:52:16;;;;;;;6.80;3.60;;;;;;;7.43;100.00;100803.28;105604;1254;64428;-61
2023/05/02 01:54:44;;;;;;;6.40;4.10;;;;;;;7.42;100.00;100802.45;105365;1258;63582;-57
2023/05/02 01:57:11;;;;;;;8.00;4.00;;;;;;;7.41;100.00;100810.52;105481;1254;76115;-61
2023/05/02 01:59:39;;;;;;;7.70;3.60;;;;;;;7.39;100.00;100815.94;105461;1254;69656;-58
2023/05/02 02:02:06;;;;;;;6.80;3.60;;;;;;;7.38;100.00;100816.91;105837;1254;75190;-60
2023/05/02 02:04:34;;;;;;;8.10;3.60;;;;;;;7.37;100.00;100817.20;105557;1254;63673;-57
2023/05/02 02:15:01;;;;;;;6.30;3.10;;;;;;;7.41;100.00;100819.52;102417;1290;600071;-57
2023/05/02 02:17:36;;;;;;;6.00;3.40;;;;;;;7.42;100.00;100821.84;104758;1264;64509;-56
2023/05/02 02:20:07;;;;;;;5.30;3.00;;;;;;;7.44;100.00;100826.02;104733;1272;61627;-61
2023/05/02 02:22:36;;;;;;;8.30;3.80;;;;;;;7.49;100.00;100830.31;104940;1268;75038;-58
2023/05/02 02:25:09;;;;;;;5.20;2.90;;;;;;;7.60;100.00;100832.93;105085;1266;69401;-55
2023/05/02 02:27:37;;;;;;;6.20;3.70;;;;;;;7.73;100.00;100833.56;104813;1269;229932;-58
2023/05/02 02:30:05;;;;;;;6.20;3.40;;;;;;;7.87;100.00;100834.42;105086;1266;62799;-60
2023/05/02 02:32:32;;;;;;;6.50;3.40;;;;;;;7.97;100.00;100828.88;104855;1266;61379;-57
2023/05/02 02:34:59;;;;;;;5.70;3.40;;;;;;;8.08;100.00;100834.10;105313;1263;74318;-58
2023/05/02 02:38:01;;;;;;;6.60;3.00;;;;;;;8.17;100.00;100833.86;105122;1266;68610;-57
2023/05/02 02:40:30;;;;;;;7.60;3.20;;;;;;;8.27;100.00;100835.31;105268;1266;75168;-57
2023/05/02 02:43:03;;;;;;;5.90;3.10;;;;;;;8.36;100.00;100837.88;105225;1266;62130;-58
2023/05/02 02:45:56;;;;;;;7.50;3.20;;;;;;;8.49;100.00;100837.02;105322;1259;62878;-59
2023/05/02 02:48:33;;;;;;;6.40;3.20;;;;;;;8.61;100.00;100840.45;105308;1266;75659;-58
2023/05/02 02:51:14;;;;;;;5.50;2.60;;;;;;;8.67;100.00;100843.28;105312;1261;68184;-58
2023/05/02 02:53:44;;;;;;;4.80;2.90;;;;;;;8.78;100.00;100849.40;105068;1269;74002;-58
2023/05/02 02:56:16;;;;;;;7.40;2.80;;;;;;;8.92;100.00;100844.77;105894;1257;64472;-57
2023/05/02 02:59:11;;;;;;;5.40;3.50;;;;;;;9.08;100.00;100845.92;105857;1251;62672;-57
2023/05/02 03:01:39;;;;;;;6.20;3.10;;;;;;;9.41;100.00;100846.39;105830;1252;75660;-56
2023/05/02 03:04:07;;;;;;;5.20;3.10;;;;;;;9.74;100.00;100844.97;106207;1257;69797;-59
2023/05/02 03:06:35;;;;;;;5.80;2.60;;;;;;;10.02;100.00;100839.88;105625;1258;73923;-56
2023/05/02 03:09:03;;;;;;;5.70;2.90;;;;;;;10.21;100.00;100837.08;105851;1254;62935;-55
2023/05/02 03:11:31;;;;;;;5.30;2.90;;;;;;;10.37;100.00;100833.42;105895;1252;62772;-55
2023/05/02 03:13:58;;;;;;;4.60;2.40;;;;;;;10.62;100.00;100836.48;106369;1252;75519;-61
2023/05/02 03:16:39;;;;;;;5.40;2.60;;;;;;;10.93;100.00;100828.92;105566;1257;68774;-59
2023/05/02 03:19:09;;;;;;;4.10;2.20;;;;;;;11.23;100.00;100829.21;105673;1254;75241;-58
2023/05/02 03:21:37;;;;;;;6.60;2.20;;;;;;;11.51;100.00;100831.84;105960;1254;61719;-58
2023/05/02 03:24:08;;;;;;;4.60;2.30;;;;;;;11.94;100.00;100831.35;106055;1257;61776;-58
2023/05/02 03:26:36;;;;;;;5.70;2.20;;;;;;;12.48;100.00;100832.69;105902;1257;75089;-57
2023/05/02 03:29:04;;;;;;;7.10;2.50;;;;;;;13.09;100.00;100832.94;105908;1257;69089;-58
2023/05/02 03:31:33;;;;;;;3.40;1.80;;;;;;;13.77;100.00;100832.62;105901;1256;73799;-57
2023/05/02 03:34:01;;;;;;;3.30;1.70;;;;;;;14.50;100.00;100832.42;105969;1257;63355;-61
2023/05/02 03:36:28;;;;;;;5.00;2.40;;;;;;;15.23;100.00;100839.52;105761;1257;62653;-58
2023/05/02 03:38:55;;;;;;;4.20;1.60;;;;;;;15.79;100.00;100839.41;105805;1255;74155;-59
2023/05/02 03:41:23;;;;;;;3.80;1.60;;;;;;;16.28;100.00;100844.74;105956;1257;68338;-58
2023/05/02 03:43:54;;;;;;;3.30;1.50;;;;;;;16.72;100.00;100847.62;106155;1257;75206;-62
2023/05/02 03:46:22;;;;;;;3.60;1.50;;;;;;;17.04;100.00;100851.55;105617;1258;61493;-59
2023/05/02 03:48:49;;;;;;;3.80;1.90;;;;;;;17.37;100.00;100850.61;105873;1251;62832;-58
2023/05/02 03:51:17;;;;;;;2.50;1.30;;;;;;;17.73;98.55;100846.88;105831;1251;74390;-55
2023/05/02 03:53:45;;;;;;;2.80;1.30;;;;;;;17.96;92.15;100855.93;106146;1251;68574;-58
2023/05/02 03:56:18;;;;;;;4.00;1.60;;;;;;;18.13;78.22;100858.46;105819;1257;74597;-56
2023/05/02 03:58:49;;;;;;;5.30;1.70;;;;;;;18.16;73.46;100859.48;105629;1251;63107;-55
2023/05/02 04:01:18;;;;;;;3.10;1.50;;;;;;;18.33;73.08;100858.13;106096;1255;62844;-56
2023/05/02 04:03:47;;;;;;;3.20;1.40;;;;;;;18.52;66.53;100858.50;106096;1260;74158;-60
2023/05/02 04:06:15;;;;;;;4.20;1.60;;;;;;;18.62;65.66;100863.33;105609;1258;69951;-56
2023/05/02 04:08:46;;;;;;;5.40;1.70;;;;;;;18.77;62.16;100869.54;105757;1256;75538;-56
2023/05/02 04:11:14;;;;;;;4.70;1.70;;;;;;;18.85;62.13;100875.30;106022;1252;63177;-56
2023/05/02 04:13:41;;;;;;;3.70;1.60;;;;;;;19.04;59.36;100879.27;106227;1257;62546;-56
2023/05/02 04:16:09;;;;;;;3.20;1.30;;;;;;;19.13;56.26;100881.81;105984;1266;75399;-60
2023/05/02 04:18:37;;;;;;;3.90;1.90;;;;;;;19.18;56.26;100883.42;105690;1251;69876;-56
2023/05/02 04:21:08;;;;;;;5.50;2.00;;;;;;;19.40;53.33;100882.55;105800;1257;75261;-56
2023/05/02 04:23:37;;;;;;;4.40;1.70;;;;;;;19.61;51.01;100883.98;105693;1257;62566;-56
2023/05/02 04:26:05;;;;;;;4.00;1.60;;;;;;;19.75;49.44;100889.33;105973;1256;61739;-60
2023/05/02 04:28:39;;;;;;;3.50;1.50;;;;;;;19.86;49.69;100889.27;105628;1257;74210;-56
2023/05/02 04:31:07;;;;;;;3.00;1.70;;;;;;;20.05;48.02;100892.45;105761;1258;69376;-56
2023/05/02 04:33:35;;;;;;;2.30;1.20;;;;;;;20.34;46.84;100896.06;105783;1252;74163;-59
2023/05/02 04:36:02;;;;;;;6.20;2.00;;;;;;;20.56;46.12;100901.81;105516;1255;62232;-56
2023/05/02 04:38:31;;;;;;;4.60;1.60;;;;;;;20.76;44.13;100904.16;105785;1257;61477;-56
2023/05/02 04:40:58;;;;;;;3.30;1.40;;;;;;;20.81;42.42;100907.20;105894;1251;74402;-56
2023/05/02 04:43:39;;;;;;;5.60;1.40;;;;;;;20.77;41.89;100908.07;105851;1251;69835;-60
2023/05/02 04:46:07;;;;;;;2.50;1.50;;;;;;;20.82;40.77;100911.34;105795;1257;74851;-56
2023/05/02 04:48:40;;;;;;;3.20;1.40;;;;;;;21.07;41.24;100914.20;105821;1257;63154;-55
2023/05/02 04:51:09;;;;;;;3.30;1.60;;;;;;;21.32;42.09;100916.42;105934;1257;62836;-57
2023/05/02 04:53:36;;;;;;;3.20;1.70;;;;;;;21.75;40.28;100923.23;105611;1257;74529;-56
2023/05/02 04:56:04;;;;;;;2.00;1.20;;;;;;;22.16;39.41;100925.27;105762;1260;69714;-56
2023/05/02 04:58:34;;;;;;;2.10;0.80;;;;;;;22.46;37.42;100926.85;106003;1252;74564;-56
2023/05/02 05:01:04;;;;;;;3.70;1.20;;;;;;;22.47;35.85;100934.89;105777;1252;63069;-56
2023/05/02 05:03:32;;;;;;;2.50;0.90;;;;;;;22.25;35.10;100938.61;105616;1257;61811;-56
2023/05/02 05:06:01;;;;;;;2.70;1.10;;;;;;;21.99;35.13;100941.65;105990;1256;75447;-56
2023/05/02 05:08:28;;;;;;;3.00;1.00;;;;;;;21.96;36.44;100943.67;105862;1257;68541;-56
2023/05/02 05:10:56;;;;;;;2.20;0.90;;;;;;;22.34;36.53;100944.59;105937;1257;75348;-55
2023/05/02 05:13:23;;;;;;;3.70;1.40;;;;;;;22.78;35.46;100944.11;106031;1251;62270;-58
2023/05/02 05:15:51;;;;;;;3.70;1.00;;;;;;;23.07;35.23;100939.21;105842;1260;62104;-56
2023/05/02 05:18:22;;;;;;;3.30;1.30;;;;;;;23.40;34.66;100938.55;105769;1259;75683;-57
2023/05/02 05:20:49;;;;;;;3.10;1.30;;;;;;;23.74;33.59;100935.15;105920;1257;69220;-56
2023/05/02 05:23:16;;;;;;;3.00;1.20;;;;;;;23.74;33.47;100937.16;105804;1257;74002;-60
2023/05/02 05:25:45;;;;;;;2.70;1.20;;;;;;;23.62;32.20;100939.34;105592;1257;63138;-56
2023/05/02 05:28:14;;;;;;;2.40;0.90;;;;;;;23.37;32.59;100946.08;105884;1253;62711;-56
2023/05/02 05:30:41;;;;;;;3.80;0.80;;;;;;;23.31;32.80;100948.20;105762;1257;75503;-57
2023/05/02 05:33:12;;;;;;;2.50;1.00;;;;;;;23.30;32.33;100952.02;106106;1252;69799;-59
2023/05/02 05:35:39;;;;;;;2.40;1.00;;;;;;;23.25;32.49;100952.29;105674;1266;74955;-57
2023/05/02 05:38:06;;;;;;;2.00;0.90;;;;;;;23.25;32.44;100955.14;105821;1257;61835;-56
2023/05/02 05:40:36;;;;;;;2.10;1.00;;;;;;;23.32;31.93;100954.48;105828;1256;61971;-55
2023/05/02 05:43:04;;;;;;;2.70;1.20;;;;;;;23.26;31.29;100959.20;106209;1258;75156;-59
2023/05/02 05:45:34;;;;;;;2.20;0.90;;;;;;;23.19;31.05;100958.70;105855;1258;69127;-56
2023/05/02 05:48:03;;;;;;;2.50;1.10;;;;;;;23.05;30.86;100964.40;105997;1255;75083;-57
2023/05/02 05:50:34;;;;;;;3.40;1.10;;;;;;;22.73;31.38;100967.92;105658;1260;61595;-56
2023/05/02 05:53:01;;;;;;;1.60;0.80;;;;;;;22.68;32.27;100968.12;106180;1265;61712;-57
2023/05/02 05:55:29;;;;;;;5.20;1.30;;;;;;;22.91;30.75;100977.73;105689;1256;75517;-57
2023/05/02 05:57:57;;;;;;;5.10;1.10;;;;;;;22.96;30.98;100975.98;105901;1256;69611;-56
2023/05/02 06:00:24;;;;;;;3.60;1.00;;;;;;;23.06;29.80;100977.35;105606;1257;75230;-56
2023/05/02 06:02:51;;;;;;;1.90;0.90;;;;;;;23.08;29.09;100976.98;106049;1257;62928;-57
2023/05/02 06:05:25;;;;;;;3.00;0.90;;;;;;;23.13;28.49;100977.10;105443;1258;62200;-56
2023/05/02 06:07:52;;;;;;;3.30;1.10;;;;;;;23.10;27.87;100985.73;105859;1257;74440;-57
2023/05/02 06:10:19;;;;;;;6.10;1.80;;;;;;;22.91;26.63;100974.48;105905;1256;68643;-56
2023/05/02 06:12:46;;;;;;;2.80;1.10;;;;;;;22.61;26.21;100982.47;106178;1256;74142;-59
2023/05/02 06:15:16;;;;;;;1.60;0.90;;;;;;;22.31;26.97;100977.91;105700;1254;62917;-56
2023/05/02 06:17:44;;;;;;;1.80;0.70;;;;;;;22.20;26.14;100974.17;105963;1256;62074;-57
2023/05/02 06:20:11;;;;;;;1.60;0.90;;;;;;;21.96;26.58;100976.65;106079;1256;75178;-56
2023/05/02 06:22:38;;;;;;;3.40;1.30;;;;;;;21.83;27.11;100983.88;106279;1256;69821;-56
2023/05/02 06:25:07;;;;;;;3.30;1.30;;;;;;;21.88;26.53;100986.08;106022;1256;75507;-59
2023/05/02 06:27:34;;;;;;;1.90;0.90;;;;;;;21.96;27.07;100989.17;105944;1257;62667;-57
2023/05/02 06:30:02;;;;;;;7.70;1.10;;;;;;;22.27;27.39;100992.83;105703;1256;61740;-57
2023/05/02 06:32:30;;;;;;;2.40;1.10;;;;;;;22.62;26.67;100997.86;105834;1252;75232;-57
2023/05/02 06:34:58;;;;;;;5.10;1.60;;;;;;;22.69;26.55;100992.73;106101;1257;69649;-60
2023/05/02 06:37:25;;;;;;;1.80;0.90;;;;;;;22.51;25.91;101002.96;105662;1265;75022;-57
2023/05/02 06:39:52;;;;;;;1.80;0.90;;;;;;;22.00;26.47;101001.45;105845;1257;61466;-57
2023/05/02 06:42:19;;;;;;;1.40;0.70;;;;;;;21.50;26.95;100999.94;105837;1256;62833;-57
2023/05/02 06:44:46;;;;;;;3.10;0.90;;;;;;;21.07;26.79;101000.59;105956;1251;75108;-58
2023/05/02 06:47:14;;;;;;;4.50;1.10;;;;;;;20.80;26.83;101006.27;105933;1256;68143;-57
2023/05/02 06:49:41;;;;;;;3.70;1.20;;;;;;;20.83;27.46;101010.41;105946;1256;75185;-58
2023/05/02 06:52:08;;;;;;;3.30;0.80;;;;;;;21.00;26.86;101015.92;105863;1256;61518;-57
2023/05/02 06:54:35;;;;;;;3.20;1.00;;;;;;;21.08;26.57;101013.21;105873;1256;62725;-57
2023/05/02 06:57:02;;;;;;;1.80;1.00;;;;;;;21.08;26.32;101015.56;106079;1257;76171;-60
2023/05/02 06:59:30;;;;;;;2.80;1.20;;;;;;;21.08;26.04;101016.34;105690;1251;70308;-56
2023/05/02 07:01:57;;;;;;;2.90;0.80;;;;;;;21.13;25.05;101014.22;105972;1258;74194;-55
2023/05/02 07:04:24;;;;;;;3.00;0.90;;;;;;;21.22;25.21;101017.42;105889;1264;62376;-55
2023/05/02 07:06:52;;;;;;;5.10;0.90;;;;;;;21.36;25.60;101020.73;106011;1251;61652;-57
2023/05/02 07:09:19;;;;;;;1.90;0.80;;;;;;;21.43;25.31;101020.57;105993;1251;76566;-56
2023/05/02 07:11:46;;;;;;;1.70;0.70;;;;;;;21.48;25.25;101017.31;105765;1251;69579;-55
2023/05/02 07:14:13;;;;;;;3.20;1.20;;;;;;;21.66;25.70;101024.36;105590;1256;74008;-56
2023/05/02 07:16:40;;;;;;;2.00;0.70;;;;;;;21.76;23.95;101025.89;105741;1254;61766;-56
2023/05/02 07:19:08;;;;;;;2.50;0.70;;;;;;;21.55;24.79;101024.55;105851;1252;63250;-57
2023/05/02 07:21:35;;;;;;;2.10;0.80;;;;;;;21.31;23.95;101023.45;105872;1251;76613;-57
2023/05/02 07:24:03;;;;;;;2.70;0.90;;;;;;;20.85;25.41;101035.54;105835;1255;68452;-57
2023/05/02 07:26:30;;;;;;;2.90;0.90;;;;;;;20.52;26.38;101041.66;105816;1255;75570;-57
2023/05/02 07:28:57;;;;;;;3.30;0.60;;;;;;;20.48;26.98;101038.52;105834;1251;62830;-57
2023/05/02 07:31:24;;;;;;;2.90;1.10;;;;;;;20.50;26.50;101038.44;106012;1251;62826;-58
2023/05/02 07:33:51;;;;;;;1.40;0.80;;;;;;;20.57;26.87;101034.96;105957;1257;76831;-56
2023/05/02 07:36:18;;;;;;;2.10;0.70;;;;;;;20.73;25.47;101034.46;105498;1251;68540;-56
2023/05/02 07:38:45;;;;;;;1.80;0.80;;;;;;;20.56;25.52;101038.95;105792;1256;74094;-60
2023/05/02 07:41:13;;;;;;;3.20;1.10;;;;;;;20.23;24.51;101039.04;105893;1251;63140;-58
2023/05/02 07:43:40;;;;;;;3.10;0.90;;;;;;;19.93;25.85;101042.91;105815;1257;62349;-57
2023/05/02 07:46:07;;;;;;;2.20;0.70;;;;;;;20.04;26.98;101040.80;105872;1254;75350;-58
2023/05/02 07:48:35;;;;;;;1.80;0.90;;;;;;;20.42;27.20;101038.02;105884;1256;69548;-55
2023/05/02 07:51:06;;;;;;;2.30;0.80;;;;;;;20.83;27.63;101032.88;105645;1251;75471;-57
2023/05/02 07:53:34;;;;;;;2.00;0.70;;;;;;;21.22;26.51;101030.83;105915;1255;62649;-60
2023/05/02 07:56:07;;;;;;;1.80;0.90;;;;;;;21.40;26.13;101023.67;105612;1253;61300;-57
2023/05/02 07:58:35;;;;;;;2.20;0.80;;;;;;;21.68;26.51;101038.64;105831;1256;76339;-57
2023/05/02 08:01:03;;;;;;;2.60;0.70;;;;;;;22.13;26.61;101035.60;105839;1251;69388;-58
2023/05/02 08:03:30;;;;;;;1.70;0.80;;;;;;;22.59;25.28;101036.92;106002;1254;74240;-59
2023/05/02 08:05:57;;;;;;;2.10;0.60;;;;;;;22.78;24.64;101038.41;105572;1254;62866;-57
2023/05/02 08:08:25;;;;;;;2.30;0.90;;;;;;;22.82;24.49;101040.17;105919;1257;62880;-57
2023/05/02 08:10:52;;;;;;;1.60;0.60;;;;;;;22.78;24.40;101044.33;105759;1257;75219;-57
2023/05/02 08:13:19;;;;;;;2.00;0.60;;;;;;;22.48;24.12;101042.34;105894;1256;69344;-57
2023/05/02 08:15:46;;;;;;;3.30;0.80;;;;;;;22.04;24.55;101044.38;105969;1257;75287;-57
2023/05/02 08:18:14;;;;;;;1.90;0.70;;;;;;;21.92;25.04;101040.77;105756;1251;62509;-57
2023/05/02 08:20:42;;;;;;;1.60;0.70;;;;;;;22.20;24.72;101036.23;105712;1256;62838;-60
2023/05/02 08:23:09;;;;;;;2.10;0.90;;;;;;;22.24;24.42;101035.12;105583;1257;74797;-57
2023/05/02 08:25:36;;;;;;;3.10;0.70;;;;;;;22.29;24.50;101037.77;105763;1251;68486;-59
2023/05/02 08:28:04;;;;;;;2.10;0.70;;;;;;;22.38;23.99;101030.08;105478;1251;75311;-57
2023/05/02 08:30:31;;;;;;;1.60;0.70;;;;;;;22.42;24.66;101038.17;105837;1251;62880;-60
2023/05/02 08:32:58;;;;;;;3.70;0.90;;;;;;;22.45;25.06;101031.35;105617;1251;62707;-57
2023/05/02 08:35:27;;;;;;;4.40;1.10;;;;;;;22.45;24.88;101031.73;105776;1256;76314;-56
2023/05/02 08:37:55;;;;;;;2.00;0.90;;;;;;;22.36;25.09;101021.91;105770;1251;69762;-56
2023/05/02 08:40:22;;;;;;;2.00;0.70;;;;;;;22.05;26.06;101031.40;105590;1255;74073;-57
2023/05/02 08:43:07;;;;;;;1.20;0.70;;;;;;;21.90;26.10;101027.78;105573;1251;62722;-56
2023/05/02 08:45:36;;;;;;;3.90;0.80;;;;;;;21.86;26.21;101029.57;105835;1257;61726;-56
2023/05/02 08:48:06;;;;;;;3.10;1.00;;;;;;;21.62;26.44;101026.48;105836;1251;75850;-57
2023/05/02 08:50:41;;;;;;;2.60;0.60;;;;;;;21.56;27.38;101025.42;105955;1256;69604;-57
2023/05/02 08:53:08;;;;;;;1.50;0.50;;;;;;;21.79;27.22;101018.14;105838;1254;73685;-59
2023/05/02 08:55:39;;;;;;;2.40;0.80;;;;;;;21.77;26.15;101022.15;105857;1251;61892;-57
2023/05/02 08:58:07;;;;;;;2.00;0.60;;;;;;;21.51;25.92;101027.45;105735;1257;61369;-59
2023/05/02 09:00:37;;;;;;;1.70;0.40;;;;;;;21.60;25.22;101020.78;105623;1255;76143;-56
2023/05/02 09:03:06;;;;;;;3.20;0.80;;;;;;;21.86;25.89;101022.45;105938;1251;69879;-57
2023/05/02 09:05:40;;;;;;;0.90;0.50;;;;;;;22.19;26.16;101016.38;105622;1254;75227;-56
2023/05/02 09:08:07;;;;;;;1.70;0.60;;;;;;;22.45;26.50;101017.48;105911;1251;62868;-60
2023/05/02 09:10:37;;;;;;;3.00;0.70;;;;;;;22.64;25.91;101020.05;105745;1256;61387;-57
2023/05/02 09:13:28;;;;;;;1.50;0.70;;;;;;;22.66;25.04;101021.77;105766;1256;76705;-60
2023/05/02 09:16:06;;;;;;;2.80;0.60;;;;;;;22.46;24.91;101017.64;106084;1255;69603;-60
2023/05/02 09:18:37;;;;;;;3.20;0.90;;;;;;;22.19;25.14;101015.70;105832;1257;74139;-57
2023/05/02 09:21:10;;;;;;;2.80;0.60;;;;;;;21.75;26.90;101020.45;105827;1256;61666;-56
2023/05/02 09:23:43;;;;;;;1.90;0.70;;;;;;;21.60;27.01;101021.05;105909;1251;62990;-56
2023/05/02 09:26:15;;;;;;;2.00;0.50;;;;;;;21.62;26.65;101020.39;105809;1255;77010;-56
2023/05/02 09:28:47;;;;;;;1.50;0.50;;;;;;;21.50;26.25;101014.28;105888;1254;68213;-60
2023/05/02 09:31:16;;;;;;;2.30;0.60;;;;;;;21.22;26.35;101012.65;105935;1251;75234;-57
2023/05/02 09:34:15;;;;;;;1.20;0.60;;;;;;;20.90;27.46;101007.15;105689;1257;61499;-56
2023/05/02 09:36:46;;;;;;;2.20;0.70;;;;;;;20.74;29.05;101010.95;105581;1251;62508;-56
2023/05/02 09:39:20;;;;;;;1.90;0.70;;;;;;;20.88;29.56;101012.27;105938;1251;74942;-58
2023/05/02 09:41:51;;;;;;;1.50;0.40;;;;;;;21.27;28.24;101005.38;105719;1251;69860;-56
2023/05/02 09:44:21;;;;;;;2.10;0.60;;;;;;;21.66;27.74;101003.41;105542;1256;75847;-56
2023/05/02 09:46:50;;;;;;;2.00;0.90;;;;;;;21.96;26.41;101006.23;105827;1255;61564;-56
2023/05/02 09:49:19;;;;;;;1.90;0.60;;;;;;;22.01;27.25;101004.86;105699;1251;62836;-57
2023/05/02 09:51:47;;;;;;;3.00;0.60;;;;;;;22.30;26.73;101001.59;105809;1251;75193;-56
2023/05/02 09:54:36;;;;;;;1.60;0.80;;;;;;;22.27;25.80;101005.36;105929;1256;68219;-57
2023/05/02 09:57:03;;;;;;;2.00;0.70;;;;;;;21.73;26.80;101001.42;105689;1255;75324;-57
2023/05/02 09:59:30;;;;;;;5.00;0.80;;;;;;;21.60;27.14;101005.66;105784;1256;60558;-56
2023/05/02 10:02:06;;;;;;;1.50;0.50;;;;;;;21.58;27.31;101004.61;105869;1251;61391;-58
2023/05/02 10:04:33;;;;;;;2.40;0.40;;;;;;;21.85;27.63;101003.85;105535;1256;76142;-57
2023/05/02 10:07:01;;;;;;;1.40;0.60;;;;;;;22.23;26.94;101006.10;105938;1251;69785;-56
2023/05/02 10:09:31;;;;;;;4.20;0.70;;;;;;;22.43;26.66;101005.13;105888;1251;74722;-57
2023/05/02 10:12:03;;;;;;;1.10;0.60;;;;;;;22.28;26.08;101000.97;105940;1257;62081;-57
2023/05/02 10:14:31;;;;;;;1.60;0.80;;;;;;;21.83;25.70;101003.65;106211;1251;63201;-57
2023/05/02 10:16:59;;;;;;;2.40;0.50;;;;;;;21.68;26.40;101007.17;105789;1251;75877;-56
2023/05/02 10:19:33;;;;;;;1.40;0.50;;;;;;;21.80;26.85;101009.34;105980;1257;68600;-56
2023/05/02 10:22:00;;;;;;;1.90;0.70;;;;;;;21.75;25.45;101003.95;105745;1257;74941;-57
2023/05/02 10:24:28;;;;;;;2.30;0.70;;;;;;;21.53;24.97;101006.58;105957;1257;62862;-56
2023/05/02 10:26:55;;;;;;;1.90;0.60;;;;;;;21.40;23.52;101006.86;105827;1251;62561;-56
2023/05/02 10:29:22;;;;;;;1.60;0.70;;;;;;;21.28;25.26;101005.34;105820;1251;76071;-56
2023/05/02 10:31:50;;;;;;;2.30;1.00;;;;;;;21.33;26.52;101010.59;105950;1257;68625;-57
2023/05/02 10:34:17;;;;;;;1.60;0.60;;;;;;;21.44;25.48;101004.99;105505;1251;75148;-56
2023/05/02 10:36:44;;;;;;;1.80;0.60;;;;;;;21.50;25.43;101005.77;105868;1257;62770;-56
2023/05/02 10:39:11;;;;;;;1.30;0.50;;;;;;;21.62;25.12;101009.92;106022;1256;61639;-56
2023/05/02 10:41:39;;;;;;;1.70;0.60;;;;;;;21.74;24.24;101010.68;105645;1251;75993;-57
2023/05/02 10:44:07;;;;;;;2.50;0.50;;;;;;;21.73;24.63;101011.83;105834;1253;68727;-56
2023/05/02 10:46:40;;;;;;;1.40;0.50;;;;;;;21.65;25.24;101007.06;105871;1257;74299;-56
2023/05/02 10:49:07;;;;;;;1.60;0.60;;;;;;;21.43;25.97;101010.01;105845;1257;63397;-56
2023/05/02 10:51:36;;;;;;;1.90;0.50;;;;;;;21.18;25.39;101004.66;106025;1251;62930;-55
2023/05/02 10:54:32;;;;;;;5.10;0.80;;;;;;;21.02;26.86;101003.48;105942;1251;76597;-56
2023/05/02 10:57:03;;;;;;;6.60;1.10;;;;;;;21.08;27.38;101004.84;105711;1256;69354;-56
2023/05/02 10:59:35;;;;;;;1.70;0.70;;;;;;;21.24;27.01;101011.41;105962;1251;75104;-59
2023/05/02 11:02:03;;;;;;;1.30;0.60;;;;;;;21.23;26.85;101011.48;105758;1256;61836;-56
2023/05/02 11:05:07;;;;;;;1.10;0.50;;;;;;;21.09;27.24;101010.33;105762;1251;62669;-55
2023/05/02 11:07:35;;;;;;;;;;;;;;;20.90;27.68;101005.68;105490;1251;74569;-55
2023/05/02 11:10:17;;;;;;;0.90;0.50;;;;;;;20.95;27.96;101007.70;105969;1256;68073;-55
2023/05/02 11:12:48;;;;;;;2.70;0.50;;;;;;;21.15;27.07;101013.61;106076;1255;74544;-58
2023/05/02 11:15:21;;;;;;;1.80;0.60;;;;;;;21.06;26.32;101006.18;105762;1257;61820;-55
2023/05/02 11:17:58;;;;;;;2.30;0.70;;;;;;;20.93;27.04;101009.51;105953;1251;62864;-57
2023/05/02 11:20:26;;;;;;;1.80;0.40;;;;;;;21.08;27.43;101009.45;105905;1250;76621;-56
2023/05/02 11:22:55;;;;;;;2.30;0.50;;;;;;;21.42;27.28;101011.04;105665;1257;68809;-55
2023/05/02 11:25:28;;;;;;;1.30;0.60;;;;;;;21.78;26.91;101006.48;105862;1251;75139;-55
2023/05/02 11:27:56;;;;;;;1.60;0.50;;;;;;;22.22;26.92;101007.04;105890;1251;63514;-55
2023/05/02 11:30:38;;;;;;;1.50;0.50;;;;;;;22.65;25.99;100999.66;105818;1251;62820;-58
2023/05/02 11:33:10;;;;;;;3.80;0.70;;;;;;;22.72;25.79;101003.30;105955;1251;76354;-55
2023/05/02 11:35:37;;;;;;;5.60;1.20;;;;;;;22.50;25.42;101003.48;105715;1253;67811;-54
2023/05/02 11:38:10;;;;;;;1.70;0.70;;;;;;;22.20;25.46;101010.61;105683;1254;74006;-58